createdAt,value
2022-12-04T00:00:30.725Z,0.90
2022-12-04T00:01:35.950Z,0.90
2022-12-04T00:02:40.262Z,0.90
2022-12-04T00:03:44.207Z,0.90
2022-12-04T00:04:49.829Z,0.90
2022-12-04T00:06:08.845Z,0.90
2022-12-04T00:07:11.621Z,0.90
2022-12-04T00:08:16.018Z,0.90
2022-12-04T00:09:20.358Z,0.90
2022-12-04T00:10:22.987Z,0.90
2022-12-04T00:11:29.656Z,0.90
2022-12-04T00:12:41.238Z,0.90
2022-12-04T00:13:46.433Z,0.90
2022-12-04T00:15:23.901Z,0.90
2022-12-04T00:16:16.930Z,0.90
2022-12-04T00:17:23.067Z,0.90
2022-12-04T00:18:27.190Z,0.90
2022-12-04T00:19:29.662Z,0.90
2022-12-04T00:20:33.855Z,0.90
2022-12-04T00:21:38.499Z,0.90
2022-12-04T00:22:44.573Z,0.90
2022-12-04T00:23:48.202Z,0.90
2022-12-04T00:24:51.953Z,0.90
2022-12-04T00:26:01.698Z,0.90
2022-12-04T00:27:06.032Z,0.90
2022-12-04T00:28:11.104Z,0.90
2022-12-04T00:29:17.705Z,0.90
2022-12-04T00:30:24.170Z,0.90
2022-12-04T00:31:30.614Z,0.90
2022-12-04T00:32:34.093Z,0.90
2022-12-04T00:33:41.021Z,0.90
2022-12-04T00:34:43.659Z,0.90
2022-12-04T00:35:49.612Z,0.90
2022-12-04T00:36:53.977Z,0.90
2022-12-04T00:37:57.968Z,0.90
2022-12-04T00:39:03.547Z,0.90
2022-12-04T00:40:11.416Z,0.90
2022-12-04T00:41:29.660Z,0.90
2022-12-04T00:42:34.253Z,0.90
2022-12-04T00:43:41.148Z,0.90
2022-12-04T00:44:46.982Z,0.90
2022-12-04T00:45:51.493Z,0.90
2022-12-04T00:46:54.282Z,0.90
2022-12-04T00:47:58.522Z,0.90
2022-12-04T00:49:02.916Z,0.90
2022-12-04T00:50:10.870Z,0.90
2022-12-04T00:51:17.258Z,0.90
2022-12-04T00:52:24.969Z,0.90
2022-12-04T00:53:27.803Z,0.90
2022-12-04T00:54:35.889Z,0.90
2022-12-04T00:55:39.700Z,0.90
2022-12-04T00:56:43.590Z,0.90
2022-12-04T00:57:46.880Z,0.90
2022-12-04T00:58:55.091Z,0.90
2022-12-04T00:59:58.460Z,0.90
2022-12-04T01:01:06.552Z,0.90
2022-12-04T01:02:09.630Z,0.90
2022-12-04T01:03:16.402Z,0.90
2022-12-04T01:04:23.076Z,0.90
2022-12-04T01:05:25.781Z,0.90
2022-12-04T01:06:35.346Z,0.90
2022-12-04T01:07:39.403Z,0.90
2022-12-04T01:08:43.482Z,0.90
2022-12-04T01:09:46.269Z,0.90
2022-12-04T01:10:53.158Z,0.90
2022-12-04T01:11:56.887Z,0.90
2022-12-04T01:12:59.500Z,0.90
2022-12-04T01:14:06.563Z,0.90
2022-12-04T01:15:11.101Z,0.90
2022-12-04T01:16:20.003Z,0.90
2022-12-04T01:17:23.032Z,0.90
2022-12-04T01:18:28.974Z,0.90
2022-12-04T01:19:31.626Z,0.90
2022-12-04T01:20:38.850Z,0.90
2022-12-04T01:21:43.026Z,0.90
2022-12-04T01:22:50.256Z,0.90
2022-12-04T01:23:54.489Z,0.90
2022-12-04T01:24:59.490Z,0.90
2022-12-04T01:26:04.499Z,0.90
2022-12-04T01:27:07.375Z,0.90
2022-12-04T01:28:12.066Z,0.90
2022-12-04T01:29:14.738Z,0.90
2022-12-04T01:30:18.734Z,0.90
2022-12-04T01:31:26.239Z,0.90
2022-12-04T01:32:31.224Z,0.90
2022-12-04T01:33:36.395Z,0.90
2022-12-04T01:34:41.084Z,0.90
2022-12-04T01:35:52.273Z,0.90
2022-12-04T01:36:56.263Z,0.90
2022-12-04T01:38:00.615Z,0.90
2022-12-04T01:39:05.700Z,0.90
2022-12-04T01:40:15.240Z,0.90
2022-12-04T01:41:23.063Z,0.90
2022-12-04T01:42:26.255Z,0.90
2022-12-04T01:43:32.772Z,0.90
2022-12-04T01:44:41.827Z,0.90
2022-12-04T01:45:48.270Z,0.90
2022-12-04T01:46:55.312Z,0.90
2022-12-04T01:48:05.892Z,0.90
2022-12-04T01:49:17.121Z,0.90
2022-12-04T01:50:25.370Z,0.90
2022-12-04T01:51:37.139Z,0.90
2022-12-04T01:52:41.636Z,0.90
2022-12-04T01:53:53.146Z,0.90
2022-12-04T01:55:01.318Z,0.90
2022-12-04T01:56:08.419Z,0.90
2022-12-04T01:57:16.444Z,0.90
2022-12-04T01:58:29.389Z,0.90
2022-12-04T01:59:39.208Z,0.90
2022-12-04T02:00:46.380Z,0.90
2022-12-04T02:02:01.790Z,0.90
2022-12-04T02:03:06.712Z,0.90
2022-12-04T02:04:10.453Z,0.90
2022-12-04T02:05:18.233Z,0.90
2022-12-04T02:06:22.372Z,0.90
2022-12-04T02:07:29.935Z,0.90
2022-12-04T02:08:36.812Z,0.90
2022-12-04T02:09:43.554Z,0.90
2022-12-04T02:11:02.768Z,0.90
2022-12-04T02:12:19.000Z,0.90
2022-12-04T02:13:32.295Z,0.90
2022-12-04T02:14:46.621Z,0.90
2022-12-04T02:16:00.438Z,0.90
2022-12-04T02:17:19.680Z,0.90
2022-12-04T02:18:35.759Z,0.90
2022-12-04T02:20:22.556Z,0.90
2022-12-04T02:21:33.437Z,0.90
2022-12-04T02:23:33.287Z,0.90
2022-12-04T02:24:53.173Z,0.90
2022-12-04T02:26:11.167Z,0.90
2022-12-04T02:27:29.104Z,0.90
2022-12-04T02:28:40.137Z,0.90
2022-12-04T02:29:58.507Z,0.90
2022-12-04T02:31:05.737Z,0.90
2022-12-04T02:32:21.645Z,0.90
2022-12-04T02:33:29.774Z,0.90
2022-12-04T02:34:43.240Z,0.90
2022-12-04T02:35:50.653Z,0.90
2022-12-04T02:37:00.586Z,0.90
2022-12-04T02:38:11.355Z,0.90
2022-12-04T02:39:24.591Z,0.90
2022-12-04T02:40:39.936Z,0.90
2022-12-04T02:41:48.636Z,0.90
2022-12-04T02:42:59.406Z,0.90
2022-12-04T02:44:10.799Z,0.90
2022-12-04T02:45:19.726Z,0.90
2022-12-04T02:46:30.096Z,0.90
2022-12-04T02:47:40.572Z,0.90
2022-12-04T02:48:52.466Z,0.90
2022-12-04T02:50:02.303Z,0.90
2022-12-04T02:51:10.952Z,0.90
2022-12-04T02:52:19.680Z,0.90
2022-12-04T02:53:30.621Z,0.90
2022-12-04T02:54:39.569Z,0.90
2022-12-04T02:55:44.949Z,0.90
2022-12-04T02:56:49.674Z,0.90
2022-12-04T02:58:00.023Z,0.90
2022-12-04T02:59:11.597Z,0.90
2022-12-04T03:00:16.866Z,0.90
2022-12-04T03:01:25.367Z,1.00
2022-12-04T03:02:36.443Z,1.00
2022-12-04T03:03:39.909Z,1.00
2022-12-04T03:04:50.606Z,1.00
2022-12-04T03:06:05.549Z,1.00
2022-12-04T03:07:19.322Z,1.00
2022-12-04T03:08:30.140Z,0.90
2022-12-04T03:09:38.829Z,1.00
2022-12-04T03:10:49.652Z,0.90
2022-12-04T03:11:59.052Z,0.90
2022-12-04T03:13:07.694Z,0.90
2022-12-04T03:14:21.661Z,1.00
2022-12-04T03:15:29.607Z,0.90
2022-12-04T03:16:39.568Z,1.00
2022-12-04T03:17:50.510Z,1.00
2022-12-04T03:19:00.652Z,0.90
2022-12-04T03:20:11.358Z,0.90
2022-12-04T03:21:21.471Z,0.90
2022-12-04T03:22:26.331Z,0.90
2022-12-04T03:23:36.721Z,0.90
2022-12-04T03:24:50.744Z,0.90
2022-12-04T03:26:04.792Z,0.90
2022-12-04T03:27:12.863Z,0.90
2022-12-04T03:28:27.179Z,0.90
2022-12-04T03:29:40.679Z,0.90
2022-12-04T03:30:51.121Z,0.90
2022-12-04T03:32:01.634Z,0.90
2022-12-04T03:33:14.441Z,0.90
2022-12-04T03:34:30.590Z,0.90
2022-12-04T03:35:42.409Z,0.90
2022-12-04T03:36:55.455Z,0.90
2022-12-04T03:38:05.962Z,0.90
2022-12-04T03:39:20.285Z,0.90
2022-12-04T03:40:36.469Z,1.00
2022-12-04T03:41:55.769Z,0.90
2022-12-04T03:43:07.496Z,1.00
2022-12-04T03:44:22.632Z,1.00
2022-12-04T03:45:31.959Z,1.00
2022-12-04T03:46:46.212Z,0.90
2022-12-04T03:47:59.270Z,1.00
2022-12-04T03:49:12.986Z,1.00
2022-12-04T03:50:21.463Z,1.00
2022-12-04T03:51:30.461Z,1.00
2022-12-04T03:52:44.350Z,0.90
2022-12-04T03:53:55.891Z,0.90
2022-12-04T03:55:07.550Z,0.90
2022-12-04T03:56:17.529Z,1.00
2022-12-04T03:57:26.958Z,0.90
2022-12-04T03:58:33.710Z,0.90
2022-12-04T03:59:44.860Z,0.90
2022-12-04T04:00:53.589Z,0.90
2022-12-04T04:02:01.011Z,0.90
2022-12-04T04:03:12.145Z,0.90
2022-12-04T04:04:23.936Z,0.90
2022-12-04T04:05:29.157Z,1.00
2022-12-04T04:06:46.512Z,1.00
2022-12-04T04:07:57.049Z,1.00
2022-12-04T04:09:07.081Z,1.00
2022-12-04T04:10:19.075Z,1.00
2022-12-04T04:11:27.962Z,1.00
2022-12-04T04:12:42.374Z,1.00
2022-12-04T04:14:13.390Z,1.00
2022-12-04T04:15:37.607Z,1.00
2022-12-04T04:17:07.082Z,1.00
2022-12-04T04:18:28.855Z,1.00
2022-12-04T04:19:55.831Z,1.00
2022-12-04T04:21:20.539Z,1.00
2022-12-04T04:22:49.378Z,1.00
2022-12-04T04:24:19.270Z,1.00
2022-12-04T04:25:28.731Z,1.00
2022-12-04T04:26:46.087Z,1.00
2022-12-04T04:27:58.628Z,1.00
2022-12-04T04:29:01.957Z,1.00
2022-12-04T04:30:08.070Z,1.00
2022-12-04T04:31:24.063Z,1.00
2022-12-04T04:32:38.574Z,1.00
2022-12-04T04:33:56.573Z,1.00
2022-12-04T04:35:15.261Z,1.00
2022-12-04T04:36:31.872Z,1.00
2022-12-04T04:37:45.034Z,1.00
2022-12-04T04:39:01.192Z,1.00
2022-12-04T04:40:20.305Z,1.00
2022-12-04T04:41:33.903Z,1.00
2022-12-04T04:42:45.693Z,1.00
2022-12-04T04:43:58.792Z,1.00
2022-12-04T04:45:09.643Z,1.00
2022-12-04T04:46:19.537Z,1.00
2022-12-04T04:47:33.052Z,1.00
2022-12-04T04:48:46.693Z,1.00
2022-12-04T04:49:55.790Z,1.00
2022-12-04T04:51:03.398Z,1.00
2022-12-04T04:52:07.889Z,1.00
2022-12-04T04:53:16.497Z,1.00
2022-12-04T04:54:22.316Z,1.00
2022-12-04T04:55:25.624Z,1.00
2022-12-04T04:56:29.957Z,1.00
2022-12-04T04:57:36.534Z,1.00
2022-12-04T04:58:44.252Z,1.00
2022-12-04T04:59:47.254Z,1.00
2022-12-04T05:01:01.367Z,0.90
2022-12-04T05:02:04.731Z,0.90
2022-12-04T05:03:11.465Z,0.90
2022-12-04T05:04:14.242Z,0.90
2022-12-04T05:05:18.908Z,0.90
2022-12-04T05:06:21.446Z,0.90
2022-12-04T05:07:25.666Z,0.90
2022-12-04T05:08:28.564Z,0.90
2022-12-04T05:09:39.758Z,1.00
2022-12-04T05:10:45.018Z,1.00
2022-12-04T05:11:50.132Z,1.00
2022-12-04T05:12:52.964Z,1.00
2022-12-04T05:13:57.012Z,1.00
2022-12-04T05:15:00.161Z,1.00
2022-12-04T05:16:06.466Z,1.00
2022-12-04T05:17:12.728Z,1.00
2022-12-04T05:18:19.164Z,1.00
2022-12-04T05:19:42.429Z,1.00
2022-12-04T05:20:45.635Z,1.00
2022-12-04T05:21:50.316Z,1.00
2022-12-04T05:22:53.099Z,1.00
2022-12-04T05:23:58.125Z,1.00
2022-12-04T05:25:01.816Z,1.00
2022-12-04T05:26:08.604Z,1.00
2022-12-04T05:27:11.338Z,1.00
2022-12-04T05:28:22.014Z,1.00
2022-12-04T05:29:24.702Z,1.00
2022-12-04T05:30:29.022Z,1.00
2022-12-04T05:31:32.215Z,1.00
2022-12-04T05:32:36.085Z,1.00
2022-12-04T05:33:40.297Z,1.00
2022-12-04T05:34:45.307Z,1.00
2022-12-04T05:35:58.821Z,1.00
2022-12-04T05:37:03.212Z,1.00
2022-12-04T05:38:07.925Z,1.00
2022-12-04T05:39:11.738Z,1.00
2022-12-04T05:40:14.752Z,1.00
2022-12-04T05:41:21.108Z,1.00
2022-12-04T05:42:26.636Z,1.00
2022-12-04T05:43:39.237Z,1.00
2022-12-04T05:44:42.270Z,1.00
2022-12-04T05:45:45.973Z,1.00
2022-12-04T05:46:49.325Z,1.00
2022-12-04T05:47:53.217Z,1.00
2022-12-04T05:48:58.081Z,1.00
2022-12-04T05:50:01.757Z,1.00
2022-12-04T05:51:06.827Z,1.00
2022-12-04T05:52:11.670Z,1.00
2022-12-04T05:53:15.044Z,1.00
2022-12-04T05:54:19.148Z,1.00
2022-12-04T05:55:22.686Z,1.00
2022-12-04T05:56:26.892Z,1.00
2022-12-04T05:57:30.766Z,1.00
2022-12-04T05:58:39.466Z,1.00
2022-12-04T05:59:44.185Z,1.00
2022-12-04T06:00:48.655Z,1.00
2022-12-04T06:01:53.444Z,1.00
2022-12-04T06:02:56.411Z,1.00
2022-12-04T06:04:02.000Z,1.00
2022-12-04T06:05:08.239Z,1.00
2022-12-04T06:06:20.954Z,1.00
2022-12-04T06:07:24.707Z,1.00
2022-12-04T06:08:31.173Z,1.00
2022-12-04T06:09:34.004Z,1.00
2022-12-04T06:10:37.894Z,1.00
2022-12-04T06:11:43.948Z,1.00
2022-12-04T06:12:46.517Z,1.00
2022-12-04T06:13:51.037Z,1.00
2022-12-04T06:14:58.195Z,1.00
2022-12-04T06:16:03.775Z,1.00
2022-12-04T06:17:10.508Z,1.00
2022-12-04T06:18:14.195Z,1.00
2022-12-04T06:19:23.701Z,1.00
2022-12-04T06:20:27.109Z,1.00
2022-12-04T06:21:34.930Z,1.00
2022-12-04T06:22:37.757Z,1.00
2022-12-04T06:23:44.148Z,1.00
2022-12-04T06:24:47.445Z,1.00
2022-12-04T06:25:51.695Z,1.00
2022-12-04T06:27:26.085Z,1.00
2022-12-04T06:28:22.262Z,1.00
2022-12-04T06:29:25.392Z,1.00
2022-12-04T06:30:30.377Z,1.00
2022-12-04T06:31:36.456Z,1.00
2022-12-04T06:32:42.415Z,1.00
2022-12-04T06:33:48.407Z,1.00
2022-12-04T06:34:55.220Z,1.00
2022-12-04T06:36:06.338Z,1.00
2022-12-04T06:37:10.705Z,1.00
2022-12-04T06:38:13.472Z,1.00
2022-12-04T06:39:19.159Z,1.00
2022-12-04T06:40:21.895Z,1.00
2022-12-04T06:41:27.994Z,1.00
2022-12-04T06:42:31.776Z,1.00
2022-12-04T06:43:38.406Z,1.00
2022-12-04T06:44:42.292Z,1.00
2022-12-04T06:45:48.648Z,1.00
2022-12-04T06:46:54.799Z,1.00
2022-12-04T06:47:58.019Z,1.00
2022-12-04T06:49:03.776Z,1.00
2022-12-04T06:50:10.005Z,1.00
2022-12-04T06:51:19.359Z,1.00
2022-12-04T06:52:22.111Z,1.00
2022-12-04T06:53:30.989Z,1.00
2022-12-04T06:54:34.201Z,1.00
2022-12-04T06:55:40.078Z,1.00
2022-12-04T06:56:44.828Z,1.00
2022-12-04T06:57:51.867Z,1.00
2022-12-04T06:59:01.410Z,1.00
2022-12-04T07:00:08.325Z,1.00
2022-12-04T07:01:15.512Z,1.00
2022-12-04T07:02:19.850Z,1.00
2022-12-04T07:03:24.152Z,1.00
2022-12-04T07:04:28.427Z,1.00
2022-12-04T07:05:32.560Z,1.00
2022-12-04T07:06:38.511Z,1.00
2022-12-04T07:07:41.374Z,1.00
2022-12-04T07:08:47.412Z,1.00
2022-12-04T07:09:50.794Z,1.00
2022-12-04T07:10:59.138Z,1.00
2022-12-04T07:12:02.378Z,1.00
2022-12-04T07:13:07.477Z,1.00
2022-12-04T07:14:14.523Z,1.00
2022-12-04T07:15:18.638Z,1.00
2022-12-04T07:16:23.677Z,1.00
2022-12-04T07:17:27.571Z,1.00
2022-12-04T07:18:34.577Z,1.00
2022-12-04T07:19:41.119Z,1.00
2022-12-04T07:20:47.817Z,1.00
2022-12-04T07:21:55.113Z,1.00
2022-12-04T07:23:01.373Z,1.00
2022-12-04T07:24:15.093Z,1.00
2022-12-04T07:25:20.221Z,1.00
2022-12-04T07:26:25.126Z,1.00
2022-12-04T07:27:32.830Z,1.00
2022-12-04T07:28:37.014Z,1.00
2022-12-04T07:29:44.226Z,1.00
2022-12-04T07:30:47.647Z,1.00
2022-12-04T07:31:53.407Z,1.00
2022-12-04T07:32:56.498Z,1.00
2022-12-04T07:34:00.686Z,1.00
2022-12-04T07:35:07.579Z,1.00
2022-12-04T07:36:17.713Z,1.00
2022-12-04T07:37:21.889Z,1.00
2022-12-04T07:38:25.430Z,1.00
2022-12-04T07:39:29.517Z,1.00
2022-12-04T07:40:34.893Z,1.00
2022-12-04T07:41:39.199Z,1.00
2022-12-04T07:42:43.868Z,1.00
2022-12-04T07:43:48.196Z,1.00
2022-12-04T07:44:51.299Z,1.00
2022-12-04T07:45:55.397Z,1.00
2022-12-04T07:46:58.496Z,1.00
2022-12-04T07:48:02.649Z,1.00
2022-12-04T07:49:13.071Z,1.00
2022-12-04T07:50:16.048Z,1.00
2022-12-04T07:51:25.817Z,1.00
2022-12-04T07:52:32.412Z,1.00
2022-12-04T07:53:37.738Z,1.00
2022-12-04T07:54:42.104Z,1.00
2022-12-04T07:55:45.650Z,1.00
2022-12-04T07:56:50.179Z,1.10
2022-12-04T07:57:53.902Z,1.00
2022-12-04T07:59:00.557Z,1.00
2022-12-04T08:00:07.484Z,1.10
2022-12-04T08:01:20.557Z,1.10
2022-12-04T08:02:23.542Z,1.10
2022-12-04T08:03:30.542Z,1.10
2022-12-04T08:04:35.064Z,1.10
2022-12-04T08:05:38.377Z,1.10
2022-12-04T08:06:43.965Z,1.10
2022-12-04T08:07:47.193Z,1.10
2022-12-04T08:08:55.224Z,1.10
2022-12-04T08:09:59.446Z,1.10
2022-12-04T08:11:08.225Z,1.10
2022-12-04T08:12:13.357Z,1.10
2022-12-04T08:13:16.846Z,1.10
2022-12-04T08:14:20.477Z,1.10
2022-12-04T08:15:26.391Z,1.10
2022-12-04T08:16:33.388Z,1.10
2022-12-04T08:17:37.861Z,1.10
2022-12-04T08:18:41.687Z,1.10
2022-12-04T08:19:45.796Z,1.10
2022-12-04T08:20:50.806Z,1.10
2022-12-04T08:22:00.647Z,1.10
2022-12-04T08:23:09.492Z,1.10
2022-12-04T08:24:14.423Z,1.10
2022-12-04T08:25:18.274Z,1.10
2022-12-04T08:26:28.640Z,1.10
2022-12-04T08:27:31.917Z,1.10
2022-12-04T08:28:40.127Z,1.20
2022-12-04T08:29:44.357Z,1.20
2022-12-04T08:30:48.853Z,1.20
2022-12-04T08:31:53.101Z,1.20
2022-12-04T08:33:06.151Z,1.20
2022-12-04T08:34:09.559Z,1.20
2022-12-04T08:35:13.651Z,1.20
2022-12-04T08:36:19.667Z,1.20
2022-12-04T08:37:27.810Z,1.20
2022-12-04T08:38:32.309Z,1.20
2022-12-04T08:39:37.080Z,1.20
2022-12-04T08:40:39.998Z,1.20
2022-12-04T08:41:45.160Z,1.20
2022-12-04T08:42:51.896Z,1.20
2022-12-04T08:43:59.677Z,1.20
2022-12-04T08:45:08.694Z,1.20
2022-12-04T08:46:18.177Z,1.20
2022-12-04T08:47:24.190Z,1.20
2022-12-04T08:48:31.396Z,1.20
2022-12-04T08:49:39.670Z,1.20
2022-12-04T08:50:48.274Z,1.20
2022-12-04T08:51:53.290Z,1.20
2022-12-04T08:52:58.430Z,1.20
2022-12-04T08:54:09.779Z,1.20
2022-12-04T08:55:14.676Z,1.20
2022-12-04T08:56:21.986Z,1.30
2022-12-04T08:57:26.085Z,1.30
2022-12-04T08:58:39.002Z,1.30
2022-12-04T08:59:43.714Z,1.30
2022-12-04T09:00:52.225Z,1.30
2022-12-04T09:01:56.799Z,1.30
2022-12-04T09:03:00.627Z,1.30
2022-12-04T09:04:05.710Z,1.30
2022-12-04T09:05:17.335Z,1.30
2022-12-04T09:06:22.867Z,1.30
2022-12-04T09:07:25.710Z,1.30
2022-12-04T09:08:32.530Z,1.30
2022-12-04T09:09:41.261Z,1.30
2022-12-04T09:10:50.545Z,1.30
2022-12-04T09:11:54.553Z,1.30
2022-12-04T09:12:57.685Z,1.30
2022-12-04T09:14:06.767Z,1.30
2022-12-04T09:15:12.913Z,1.30
2022-12-04T09:16:21.302Z,1.40
2022-12-04T09:17:26.642Z,1.30
2022-12-04T09:18:29.602Z,1.40
2022-12-04T09:19:35.550Z,1.30
2022-12-04T09:20:39.191Z,1.40
2022-12-04T09:21:42.852Z,1.40
2022-12-04T09:23:04.030Z,1.40
2022-12-04T09:24:11.760Z,1.40
2022-12-04T09:25:14.754Z,1.40
2022-12-04T09:26:24.469Z,1.40
2022-12-04T09:27:28.785Z,1.40
2022-12-04T09:28:32.043Z,1.40
2022-12-04T09:29:36.467Z,1.40
2022-12-04T09:30:39.332Z,1.50
2022-12-04T09:31:43.831Z,1.50
2022-12-04T09:32:49.074Z,1.50
2022-12-04T09:33:54.099Z,1.50
2022-12-04T09:35:02.424Z,1.50
2022-12-04T09:36:07.756Z,1.50
2022-12-04T09:37:12.428Z,1.50
2022-12-04T09:38:15.334Z,1.50
2022-12-04T09:39:21.085Z,1.50
2022-12-04T09:40:36.880Z,1.50
2022-12-04T09:42:20.347Z,1.50
2022-12-04T09:43:35.740Z,1.60
2022-12-04T09:44:44.624Z,1.60
2022-12-04T09:45:55.595Z,1.60
2022-12-04T09:47:04.616Z,1.60
2022-12-04T09:48:13.557Z,1.60
2022-12-04T09:49:23.433Z,1.60
2022-12-04T09:50:36.406Z,1.60
2022-12-04T09:51:43.049Z,1.60
2022-12-04T09:52:56.522Z,1.60
2022-12-04T09:54:14.011Z,1.60
2022-12-04T09:55:32.428Z,1.60
2022-12-04T09:56:36.340Z,1.60
2022-12-04T09:57:45.430Z,1.60
2022-12-04T09:58:55.948Z,1.60
2022-12-04T10:00:00.802Z,1.60
2022-12-04T10:01:06.612Z,1.60
2022-12-04T10:02:34.312Z,1.60
2022-12-04T10:03:41.180Z,1.60
2022-12-04T10:04:46.126Z,1.60
2022-12-04T10:06:02.180Z,1.60
2022-12-04T10:07:14.118Z,1.60
2022-12-04T10:08:22.721Z,1.60
2022-12-04T10:09:38.864Z,1.60
2022-12-04T10:11:00.085Z,1.60
2022-12-04T10:12:19.552Z,1.60
2022-12-04T10:14:02.265Z,1.60
2022-12-04T10:15:21.736Z,1.60
2022-12-04T10:16:29.455Z,1.60
2022-12-04T10:18:22.646Z,1.60
2022-12-04T10:19:35.523Z,1.60
2022-12-04T10:21:30.493Z,1.60
2022-12-04T10:22:46.287Z,1.60
2022-12-04T10:24:05.962Z,1.60
2022-12-04T10:25:19.233Z,1.60
2022-12-04T10:26:31.256Z,1.60
2022-12-04T10:27:43.869Z,1.60
2022-12-04T10:28:56.005Z,1.60
2022-12-04T10:30:09.234Z,1.60
2022-12-04T10:31:17.510Z,1.60
2022-12-04T10:32:24.844Z,1.50
2022-12-04T10:33:39.509Z,1.50
2022-12-04T10:34:47.190Z,1.50
2022-12-04T10:36:01.674Z,1.50
2022-12-04T10:37:14.287Z,1.50
2022-12-04T10:38:36.320Z,1.50
2022-12-04T10:39:46.277Z,1.50
2022-12-04T10:40:56.630Z,1.50
2022-12-04T10:42:15.461Z,1.50
2022-12-04T10:43:31.559Z,1.50
2022-12-04T10:44:36.662Z,1.50
2022-12-04T10:45:40.484Z,1.50
2022-12-04T10:46:46.651Z,1.50
2022-12-04T10:47:51.952Z,1.50
2022-12-04T10:49:03.650Z,1.50
2022-12-04T10:50:17.562Z,1.50
2022-12-04T10:51:25.154Z,1.50
2022-12-04T10:52:28.342Z,1.50
2022-12-04T10:53:37.842Z,1.50
2022-12-04T10:54:49.736Z,1.50
2022-12-04T10:55:54.089Z,1.50
2022-12-04T10:57:00.030Z,1.50
2022-12-04T10:58:17.653Z,1.50
2022-12-04T10:59:20.374Z,1.50
2022-12-04T11:00:34.102Z,1.50
2022-12-04T11:01:37.712Z,1.50
2022-12-04T11:02:42.752Z,1.50
2022-12-04T11:03:56.765Z,1.50
2022-12-04T11:05:03.325Z,1.50
2022-12-04T11:06:11.377Z,1.50
2022-12-04T11:07:23.672Z,1.50
2022-12-04T11:08:39.941Z,1.50
2022-12-04T11:09:44.042Z,1.50
2022-12-04T11:10:56.634Z,1.50
2022-12-04T11:12:10.052Z,1.50
2022-12-04T11:13:18.975Z,1.50
2022-12-04T11:14:25.499Z,1.50
2022-12-04T11:15:31.369Z,1.50
2022-12-04T11:16:40.009Z,1.50
2022-12-04T11:17:43.109Z,1.50
2022-12-04T11:18:54.211Z,1.50
2022-12-04T11:20:06.597Z,1.50
2022-12-04T11:21:20.137Z,1.50
2022-12-04T11:22:24.680Z,1.50
2022-12-04T11:23:30.508Z,1.50
2022-12-04T11:24:38.040Z,1.50
2022-12-04T11:25:48.869Z,1.50
2022-12-04T11:26:52.159Z,1.50
2022-12-04T11:28:00.209Z,1.50
2022-12-04T11:29:06.363Z,1.50
2022-12-04T11:30:16.984Z,1.50
2022-12-04T11:31:25.952Z,1.50
2022-12-04T11:32:34.527Z,1.50
2022-12-04T11:33:46.948Z,1.60
2022-12-04T11:34:53.770Z,1.60
2022-12-04T11:36:03.304Z,1.60
2022-12-04T11:37:24.154Z,1.50
2022-12-04T11:38:31.427Z,1.60
2022-12-04T11:39:39.203Z,1.60
2022-12-04T11:40:49.687Z,1.60
2022-12-04T11:42:03.302Z,1.60
2022-12-04T11:43:15.948Z,1.60
2022-12-04T11:44:28.311Z,1.60
2022-12-04T11:45:36.239Z,1.60
2022-12-04T11:46:40.799Z,1.60
2022-12-04T11:47:56.449Z,1.60
2022-12-04T11:49:05.285Z,1.60
2022-12-04T11:50:21.894Z,1.60
2022-12-04T11:51:46.479Z,1.60
2022-12-04T11:53:07.793Z,1.60
2022-12-04T11:54:26.734Z,1.60
2022-12-04T11:55:38.763Z,1.60
2022-12-04T11:56:47.724Z,1.60
2022-12-04T11:58:07.886Z,1.60
2022-12-04T11:59:40.003Z,1.60
2022-12-04T12:00:57.219Z,1.60
2022-12-04T12:02:25.895Z,1.60
2022-12-04T12:03:38.606Z,1.60
2022-12-04T12:05:19.456Z,1.60
2022-12-04T12:06:36.628Z,1.60
2022-12-04T12:08:02.191Z,1.70
2022-12-04T12:09:26.854Z,1.70
2022-12-04T12:10:43.118Z,1.70
2022-12-04T12:11:57.054Z,1.70
2022-12-04T12:13:15.305Z,1.70
2022-12-04T12:14:27.244Z,1.70
2022-12-04T12:15:46.764Z,1.70
2022-12-04T12:17:09.880Z,1.70
2022-12-04T12:18:34.843Z,1.70
2022-12-04T12:20:13.600Z,1.70
2022-12-04T12:21:24.871Z,1.70
2022-12-04T12:23:17.164Z,1.70
2022-12-04T12:24:30.597Z,1.70
2022-12-04T12:25:52.090Z,1.70
2022-12-04T12:27:17.018Z,1.70
2022-12-04T12:28:42.762Z,1.70
2022-12-04T12:30:02.895Z,1.70
2022-12-04T12:31:35.643Z,1.70
2022-12-04T12:33:02.550Z,1.70
2022-12-04T12:34:12.680Z,1.70
2022-12-04T12:35:23.799Z,1.70
2022-12-04T12:36:38.761Z,1.70
2022-12-04T12:37:53.422Z,1.70
2022-12-04T12:39:01.686Z,1.80
2022-12-04T12:40:15.811Z,1.70
2022-12-04T12:41:25.908Z,1.80
2022-12-04T12:42:34.788Z,1.70
2022-12-04T12:43:41.090Z,1.80
2022-12-04T12:44:54.672Z,1.80
2022-12-04T12:46:08.195Z,1.80
2022-12-04T12:47:19.758Z,1.80
2022-12-04T12:48:34.124Z,1.80
2022-12-04T12:49:45.494Z,1.80
2022-12-04T12:51:28.113Z,1.80
2022-12-04T12:52:32.908Z,1.80
2022-12-04T12:53:44.309Z,1.80
2022-12-04T12:54:55.812Z,1.80
2022-12-04T12:56:06.393Z,1.80
2022-12-04T12:57:17.379Z,1.80
2022-12-04T12:58:30.590Z,1.80
2022-12-04T12:59:34.772Z,1.80
2022-12-04T13:00:48.477Z,1.90
2022-12-04T13:02:00.854Z,1.90
2022-12-04T13:03:26.036Z,1.90
2022-12-04T13:04:40.144Z,1.90
2022-12-04T13:06:02.886Z,1.80
2022-12-04T13:07:25.599Z,1.80
2022-12-04T13:08:35.389Z,1.80
2022-12-04T13:09:46.454Z,1.80
2022-12-04T13:11:08.452Z,1.80
2022-12-04T13:12:15.725Z,1.80
2022-12-04T13:13:27.125Z,1.80
2022-12-04T13:14:31.014Z,1.80
2022-12-04T13:15:42.100Z,1.80
2022-12-04T13:16:50.974Z,1.80
2022-12-04T13:17:59.296Z,1.80
2022-12-04T13:19:17.979Z,1.80
2022-12-04T13:20:28.581Z,1.80
2022-12-04T13:21:36.942Z,1.80
2022-12-04T13:22:56.996Z,1.80
2022-12-04T13:24:47.961Z,1.80
2022-12-04T13:26:03.461Z,1.80
2022-12-04T13:27:14.569Z,1.80
2022-12-04T13:28:38.604Z,1.80
2022-12-04T13:29:59.778Z,1.80
2022-12-04T13:31:23.398Z,1.80
2022-12-04T13:33:31.085Z,1.80
2022-12-04T13:34:56.607Z,1.80
2022-12-04T13:36:22.711Z,1.80
2022-12-04T13:38:00.342Z,1.90
2022-12-04T13:39:48.546Z,1.90
2022-12-04T13:40:58.564Z,1.90
2022-12-04T13:42:06.032Z,1.90
2022-12-04T13:43:35.818Z,1.90
2022-12-04T13:44:40.435Z,1.90
2022-12-04T13:45:48.614Z,1.90
2022-12-04T13:46:59.439Z,1.90
2022-12-04T13:48:04.553Z,1.90
2022-12-04T13:49:27.423Z,1.90
2022-12-04T13:50:35.750Z,1.90
2022-12-04T13:51:44.312Z,1.90
2022-12-04T13:52:50.322Z,1.90
2022-12-04T13:54:26.979Z,1.90
2022-12-04T13:55:33.125Z,1.90
2022-12-04T13:56:36.960Z,1.90
2022-12-04T13:57:44.085Z,1.90
2022-12-04T13:58:49.079Z,1.90
2022-12-04T14:00:22.352Z,1.90
2022-12-04T14:01:31.321Z,1.90
2022-12-04T14:02:38.083Z,1.90
2022-12-04T14:03:49.268Z,1.90
2022-12-04T14:05:02.376Z,1.90
2022-12-04T14:06:26.346Z,1.90
2022-12-04T14:07:33.549Z,1.90
2022-12-04T14:08:44.918Z,2.00
2022-12-04T14:09:53.974Z,1.90
2022-12-04T14:11:05.523Z,2.00
2022-12-04T14:12:16.885Z,2.00
2022-12-04T14:13:25.288Z,1.90
2022-12-04T14:14:34.715Z,2.00
2022-12-04T14:15:39.135Z,1.90
2022-12-04T14:16:44.020Z,1.90
2022-12-04T14:18:01.791Z,2.00
2022-12-04T14:19:07.789Z,1.90
2022-12-04T14:20:28.823Z,1.90
2022-12-04T14:21:42.436Z,1.90
2022-12-04T14:22:46.487Z,1.90
2022-12-04T14:23:52.357Z,2.00
2022-12-04T14:25:22.321Z,1.90
2022-12-04T14:27:56.128Z,1.90
2022-12-04T14:29:09.933Z,1.90
2022-12-04T14:30:23.821Z,1.90
2022-12-04T14:31:40.809Z,1.90
2022-12-04T14:32:46.934Z,1.90
2022-12-04T14:33:57.995Z,1.90
2022-12-04T14:35:31.614Z,2.00
2022-12-04T14:36:51.909Z,1.90
2022-12-04T14:38:06.834Z,1.90
2022-12-04T14:39:28.173Z,1.90
2022-12-04T14:40:39.622Z,1.90
2022-12-04T14:41:44.464Z,1.90
2022-12-04T14:42:49.940Z,1.90
2022-12-04T14:43:55.475Z,1.90
2022-12-04T14:45:03.117Z,1.90
2022-12-04T14:46:15.231Z,1.90
2022-12-04T14:47:40.816Z,1.90
2022-12-04T14:48:58.103Z,1.90
2022-12-04T14:50:20.841Z,1.90
2022-12-04T14:51:35.990Z,1.90
2022-12-04T14:52:51.094Z,2.00
2022-12-04T14:54:09.627Z,1.90
2022-12-04T14:55:26.244Z,2.00
2022-12-04T14:56:53.962Z,1.90
2022-12-04T14:58:00.945Z,1.90
2022-12-04T14:59:16.499Z,2.00
2022-12-04T15:00:28.927Z,2.00
2022-12-04T15:01:37.933Z,2.00
2022-12-04T15:02:47.405Z,1.90
2022-12-04T15:03:53.807Z,2.00
2022-12-04T15:05:02.285Z,2.00
2022-12-04T15:06:10.809Z,2.00
2022-12-04T15:07:22.250Z,1.90
2022-12-04T15:08:28.937Z,2.00
2022-12-04T15:09:53.851Z,1.90
2022-12-04T15:11:15.783Z,1.90
2022-12-04T15:12:35.974Z,1.90
2022-12-04T15:13:40.347Z,1.90
2022-12-04T15:14:48.643Z,1.90
2022-12-04T15:15:52.882Z,1.90
2022-12-04T15:17:05.095Z,1.90
2022-12-04T15:18:17.244Z,1.90
2022-12-04T15:19:22.377Z,1.90
2022-12-04T15:20:27.597Z,1.90
2022-12-04T15:21:40.722Z,1.90
2022-12-04T15:22:46.269Z,1.90
2022-12-04T15:23:54.651Z,1.90
2022-12-04T15:24:58.603Z,1.80
2022-12-04T15:26:07.103Z,1.80
2022-12-04T15:27:13.581Z,1.80
2022-12-04T15:28:23.387Z,1.80
2022-12-04T15:29:33.328Z,1.80
2022-12-04T15:30:41.513Z,1.80
2022-12-04T15:31:53.518Z,1.80
2022-12-04T15:32:58.511Z,1.80
2022-12-04T15:34:08.093Z,1.80